createdAt,value
2019-03-27T00:00:25.233Z,75.56
2019-03-27T00:01:25.196Z,74.95
2019-03-27T00:02:25.190Z,75.26
2019-03-27T00:03:25.183Z,75.36
2019-03-27T00:04:25.192Z,75.36
2019-03-27T00:05:25.188Z,75.67
2019-03-27T00:06:25.161Z,75.67
2019-03-27T00:07:25.132Z,75.56
2019-03-27T00:08:25.146Z,75.77
2019-03-27T00:09:25.123Z,75.87
2019-03-27T00:10:25.134Z,75.77
2019-03-27T00:11:25.111Z,75.87
2019-03-27T00:12:25.093Z,75.56
2019-03-27T00:13:25.071Z,75.46
2019-03-27T00:14:25.064Z,75.56
2019-03-27T00:15:25.052Z,76.18
2019-03-27T00:16:25.067Z,76.18
2019-03-27T00:17:25.029Z,76.18
2019-03-27T00:18:25.024Z,76.29
2019-03-27T00:19:25.035Z,76.18
2019-03-27T00:20:24.999Z,76.08
2019-03-27T00:21:25.011Z,76.08
2019-03-27T00:22:24.967Z,76.29
2019-03-27T00:23:24.967Z,76.18
2019-03-27T00:24:24.954Z,76.18
2019-03-27T00:25:24.939Z,75.87
2019-03-27T00:26:24.979Z,75.87
2019-03-27T00:27:24.922Z,75.98
2019-03-27T00:28:24.909Z,75.87
2019-03-27T00:29:24.957Z,76.08
2019-03-27T00:30:24.877Z,76.32
2019-03-27T00:31:24.909Z,76.08
2019-03-27T00:32:24.860Z,75.87
2019-03-27T00:33:24.869Z,76.32
2019-03-27T00:34:24.855Z,76.42
2019-03-27T00:35:24.840Z,76.63
2019-03-27T00:36:24.857Z,76.18
2019-03-27T00:37:24.803Z,76.32
2019-03-27T00:38:24.797Z,76.32
2019-03-27T00:39:25.028Z,76.29
2019-03-27T00:40:24.783Z,76.42
2019-03-27T00:41:24.804Z,76.42
2019-03-27T00:42:24.753Z,76.32
2019-03-27T00:43:24.759Z,76.32
2019-03-27T00:44:24.733Z,76.32
2019-03-27T00:45:26.711Z,76.53
2019-03-27T00:46:24.745Z,76.53
2019-03-27T00:47:24.695Z,76.63
2019-03-27T00:48:24.681Z,76.42
2019-03-27T00:49:24.686Z,76.53
2019-03-27T00:50:24.663Z,76.53
2019-03-27T00:51:24.657Z,76.63
2019-03-27T00:52:24.657Z,76.94
2019-03-27T00:53:24.638Z,76.84
2019-03-27T00:54:24.641Z,76.94
2019-03-27T00:55:24.623Z,76.63
2019-03-27T00:56:24.597Z,76.94
2019-03-27T00:57:24.633Z,76.94
2019-03-27T00:58:24.607Z,76.94
2019-03-27T00:59:24.568Z,77.04
2019-03-27T01:00:24.561Z,77.15
2019-03-27T01:01:24.549Z,77.04
2019-03-27T01:02:24.566Z,76.94
2019-03-27T01:03:24.533Z,77.25
2019-03-27T01:04:24.511Z,77.15
2019-03-27T01:05:24.504Z,77.35
2019-03-27T01:06:24.519Z,77.45
2019-03-27T01:07:24.498Z,78.28
2019-03-27T01:08:24.470Z,78.18
2019-03-27T01:09:24.482Z,78.18
2019-03-27T01:10:24.443Z,77.97
2019-03-27T01:11:24.433Z,78.08
2019-03-27T01:12:24.441Z,78.08
2019-03-27T01:13:24.417Z,77.66
2019-03-27T01:14:24.407Z,77.87
2019-03-27T01:15:24.409Z,77.87
2019-03-27T01:16:24.383Z,77.97
2019-03-27T01:17:24.390Z,77.76
2019-03-27T01:18:24.357Z,77.87
2019-03-27T01:19:24.366Z,77.73
2019-03-27T01:20:24.338Z,77.76
2019-03-27T01:21:24.330Z,77.97
2019-03-27T01:22:24.327Z,78.08
2019-03-27T01:23:24.298Z,77.87
2019-03-27T01:24:24.308Z,78.18
2019-03-27T01:25:24.281Z,78.18
2019-03-27T01:26:24.272Z,77.97
2019-03-27T01:27:24.282Z,78.08
2019-03-27T01:28:24.246Z,78.49
2019-03-27T01:29:24.238Z,78.59
2019-03-27T01:30:24.240Z,78.59
2019-03-27T01:31:24.220Z,78.28
2019-03-27T01:32:24.225Z,78.49
2019-03-27T01:33:24.196Z,78.49
2019-03-27T01:34:24.179Z,78.80
2019-03-27T01:35:24.165Z,78.49
2019-03-27T01:36:24.157Z,78.59
2019-03-27T01:37:24.190Z,78.80
2019-03-27T01:38:24.147Z,78.49
2019-03-27T01:39:24.209Z,78.83
2019-03-27T01:40:24.121Z,78.94
2019-03-27T01:41:24.104Z,79.04
2019-03-27T01:42:24.092Z,78.83
2019-03-27T01:43:24.106Z,79.14
2019-03-27T01:44:24.106Z,79.04
2019-03-27T01:45:24.058Z,79.25
2019-03-27T01:46:24.044Z,79.41
2019-03-27T01:47:24.049Z,79.35
2019-03-27T01:48:24.049Z,78.90
2019-03-27T01:49:24.019Z,78.83
2019-03-27T01:50:24.008Z,79.25
2019-03-27T01:51:23.995Z,78.94
2019-03-27T01:52:23.986Z,78.94
2019-03-27T01:53:23.986Z,79.55
2019-03-27T01:54:23.970Z,79.55
2019-03-27T01:55:23.955Z,79.55
2019-03-27T01:56:23.938Z,79.45
2019-03-27T01:57:23.927Z,79.41
2019-03-27T01:58:23.942Z,79.41
2019-03-27T01:59:24.134Z,79.31
2019-03-27T02:00:23.912Z,79.31
2019-03-27T02:01:23.887Z,79.52
2019-03-27T02:02:23.875Z,79.21
2019-03-27T02:03:23.880Z,79.52
2019-03-27T02:04:23.858Z,79.21
2019-03-27T02:05:23.838Z,79.52
2019-03-27T02:06:23.840Z,79.66
2019-03-27T02:07:23.817Z,79.55
2019-03-27T02:08:23.824Z,79.52
2019-03-27T02:09:23.796Z,79.62
2019-03-27T02:10:23.787Z,79.52
2019-03-27T02:11:23.772Z,79.52
2019-03-27T02:12:23.758Z,79.55
2019-03-27T02:13:23.797Z,79.35
2019-03-27T02:14:23.766Z,79.35
2019-03-27T02:15:23.740Z,79.76
2019-03-27T02:16:23.725Z,79.55
2019-03-27T02:17:23.722Z,80.18
2019-03-27T02:18:23.709Z,80.18
2019-03-27T02:19:23.712Z,79.97
2019-03-27T02:20:23.674Z,79.97
2019-03-27T02:21:23.672Z,80.18
2019-03-27T02:22:23.668Z,80.38
2019-03-27T02:23:23.654Z,80.18
2019-03-27T02:24:23.663Z,80.07
2019-03-27T02:25:23.618Z,80.18
2019-03-27T02:26:23.608Z,80.07
2019-03-27T02:27:23.594Z,80.28
2019-03-27T02:28:23.589Z,80.38
2019-03-27T02:29:23.608Z,80.28
2019-03-27T02:30:23.565Z,80.48
2019-03-27T02:31:23.553Z,80.24
2019-03-27T02:32:23.548Z,80.04
2019-03-27T02:33:23.525Z,79.83
2019-03-27T02:34:23.543Z,80.04
2019-03-27T02:35:23.507Z,80.04
2019-03-27T02:36:23.521Z,80.04
2019-03-27T02:37:23.488Z,80.44
2019-03-27T02:38:23.482Z,80.07
2019-03-27T02:39:23.734Z,80.14
2019-03-27T02:40:23.513Z,80.55
2019-03-27T02:41:23.439Z,80.76
2019-03-27T02:42:23.424Z,80.65
2019-03-27T02:43:23.418Z,80.76
2019-03-27T02:44:23.454Z,81.27
2019-03-27T02:45:23.396Z,80.96
2019-03-27T02:46:25.417Z,81.17
2019-03-27T02:47:23.380Z,80.96
2019-03-27T02:48:23.364Z,81.07
2019-03-27T02:49:23.377Z,81.07
2019-03-27T02:50:23.341Z,81.27
2019-03-27T02:51:23.353Z,81.07
2019-03-27T02:52:23.319Z,80.76
2019-03-27T02:53:23.317Z,81.17
2019-03-27T02:54:23.309Z,81.07
2019-03-27T02:55:23.289Z,81.07
2019-03-27T02:56:23.282Z,81.27
2019-03-27T02:57:23.278Z,81.27
2019-03-27T02:58:23.256Z,81.48
2019-03-27T02:59:23.256Z,81.37
2019-03-27T03:00:23.267Z,81.37
2019-03-27T03:01:23.229Z,81.37
2019-03-27T03:02:23.213Z,81.58
2019-03-27T03:03:23.215Z,81.17
2019-03-27T03:04:23.220Z,81.37
2019-03-27T03:05:23.180Z,81.58
2019-03-27T03:06:23.195Z,81.89
2019-03-27T03:07:23.151Z,81.79
2019-03-27T03:08:23.175Z,82.06
2019-03-27T03:09:23.158Z,82.10
2019-03-27T03:10:23.137Z,82.16
2019-03-27T03:11:23.111Z,82.37
2019-03-27T03:12:23.109Z,81.99
2019-03-27T03:13:23.095Z,81.79
2019-03-27T03:14:23.084Z,81.85
2019-03-27T03:15:23.139Z,81.75
2019-03-27T03:16:23.074Z,81.85
2019-03-27T03:17:23.051Z,81.75
2019-03-27T03:18:23.078Z,81.85
2019-03-27T03:19:23.027Z,81.85
2019-03-27T03:20:23.033Z,82.06
2019-03-27T03:21:23.006Z,82.16
2019-03-27T03:22:22.991Z,81.96
2019-03-27T03:23:23.001Z,82.06
2019-03-27T03:24:22.978Z,82.26
2019-03-27T03:25:22.979Z,82.26
2019-03-27T03:26:22.955Z,82.47
2019-03-27T03:27:22.955Z,82.16
2019-03-27T03:28:22.941Z,82.57
2019-03-27T03:29:22.931Z,82.57
2019-03-27T03:30:22.934Z,82.06
2019-03-27T03:31:22.954Z,82.26
2019-03-27T03:32:22.889Z,82.16
2019-03-27T03:33:22.872Z,82.26
2019-03-27T03:34:22.866Z,82.68
2019-03-27T03:35:22.878Z,82.78
2019-03-27T03:36:22.838Z,83.19
2019-03-27T03:37:22.842Z,83.09
2019-03-27T03:38:22.845Z,82.68
2019-03-27T03:39:22.872Z,82.57
2019-03-27T03:40:22.816Z,82.68
2019-03-27T03:41:22.791Z,82.68
2019-03-27T03:42:22.787Z,83.09
2019-03-27T03:43:22.786Z,82.57
2019-03-27T03:44:22.808Z,82.89
2019-03-27T03:45:22.758Z,82.74
2019-03-27T03:46:22.736Z,82.98
2019-03-27T03:47:22.718Z,83.29
2019-03-27T03:48:22.737Z,82.84
2019-03-27T03:49:22.717Z,83.36
2019-03-27T03:50:22.724Z,83.47
2019-03-27T03:51:22.671Z,82.84
2019-03-27T03:52:22.685Z,82.74
2019-03-27T03:53:22.678Z,82.95
2019-03-27T03:54:22.653Z,82.74
2019-03-27T03:55:22.695Z,82.74
2019-03-27T03:56:22.625Z,82.74
2019-03-27T03:57:22.607Z,82.84
2019-03-27T03:58:22.610Z,82.64
2019-03-27T03:59:22.598Z,82.64
2019-03-27T04:00:22.600Z,82.64
2019-03-27T04:01:22.596Z,82.74
2019-03-27T04:02:22.581Z,82.74
2019-03-27T04:03:22.560Z,83.05
2019-03-27T04:04:22.544Z,82.84
2019-03-27T04:05:22.547Z,82.84
2019-03-27T04:06:22.531Z,82.74
2019-03-27T04:07:22.502Z,83.05
2019-03-27T04:08:22.487Z,83.05
2019-03-27T04:09:22.478Z,82.64
2019-03-27T04:10:22.488Z,82.95
2019-03-27T04:11:22.465Z,83.05
2019-03-27T04:12:22.464Z,83.47
2019-03-27T04:13:22.440Z,83.05
2019-03-27T04:14:22.421Z,82.64
2019-03-27T04:15:22.432Z,82.64
2019-03-27T04:16:22.407Z,82.84
2019-03-27T04:17:22.402Z,82.74
2019-03-27T04:18:22.403Z,82.74
2019-03-27T04:19:22.381Z,82.54
2019-03-27T04:20:22.392Z,84.08
2019-03-27T04:21:22.347Z,84.14
2019-03-27T04:22:22.331Z,83.47
2019-03-27T04:23:22.336Z,83.05
2019-03-27T04:24:22.305Z,83.05
2019-03-27T04:25:22.317Z,83.12
2019-03-27T04:26:22.292Z,83.12
2019-03-27T04:27:22.290Z,82.74
2019-03-27T04:28:22.370Z,82.70
2019-03-27T04:29:22.271Z,83.12
2019-03-27T04:30:22.280Z,83.01
2019-03-27T04:31:22.242Z,82.81
2019-03-27T04:32:22.270Z,82.81
2019-03-27T04:33:22.232Z,82.60
2019-03-27T04:34:22.212Z,82.60
2019-03-27T04:35:22.239Z,82.91
2019-03-27T04:36:22.196Z,82.95
2019-03-27T04:37:22.166Z,82.54
2019-03-27T04:38:22.252Z,82.64
2019-03-27T04:39:22.156Z,82.95
2019-03-27T04:40:22.154Z,83.36
2019-03-27T04:41:22.150Z,82.74
2019-03-27T04:42:22.115Z,82.84
2019-03-27T04:43:22.114Z,83.01
2019-03-27T04:44:22.101Z,83.01
2019-03-27T04:45:22.091Z,83.26
2019-03-27T04:46:22.096Z,83.05
2019-03-27T04:47:31.979Z,83.05
2019-03-27T04:48:23.055Z,83.15
2019-03-27T04:49:22.034Z,83.36
2019-03-27T04:50:22.028Z,82.91
2019-03-27T04:51:22.039Z,83.53
2019-03-27T04:52:22.007Z,83.12
2019-03-27T04:53:21.995Z,83.12
2019-03-27T04:54:22.004Z,83.01
2019-03-27T04:55:21.983Z,82.91
2019-03-27T04:56:21.986Z,82.91
2019-03-27T04:57:21.959Z,83.01
2019-03-27T04:58:21.943Z,82.91
2019-03-27T04:59:21.930Z,83.01
2019-03-27T05:00:21.916Z,82.91
2019-03-27T05:01:21.936Z,82.91
2019-03-27T05:02:21.902Z,83.32
2019-03-27T05:03:21.903Z,84.25
2019-03-27T05:04:21.914Z,84.35
2019-03-27T05:05:21.862Z,83.63
2019-03-27T05:06:21.878Z,83.22
2019-03-27T05:07:21.841Z,83.01
2019-03-27T05:08:21.868Z,82.70
2019-03-27T05:09:21.973Z,82.60
2019-03-27T05:10:21.801Z,82.50
2019-03-27T05:11:21.829Z,82.70
2019-03-27T05:12:21.783Z,82.70
2019-03-27T05:13:21.873Z,83.07
2019-03-27T05:14:21.762Z,82.87
2019-03-27T05:15:21.755Z,82.77
2019-03-27T05:16:21.746Z,83.07
2019-03-27T05:17:21.759Z,83.32
2019-03-27T05:18:21.715Z,83.28
2019-03-27T05:19:21.718Z,82.97
2019-03-27T05:20:21.823Z,83.07
2019-03-27T05:21:21.682Z,82.46
2019-03-27T05:22:21.697Z,82.56
2019-03-27T05:23:21.665Z,82.87
2019-03-27T05:24:22.045Z,82.87
2019-03-27T05:25:21.647Z,82.87
2019-03-27T05:26:21.627Z,82.81
2019-03-27T05:27:21.659Z,82.77
2019-03-27T05:28:21.629Z,82.77
2019-03-27T05:29:21.604Z,83.07
2019-03-27T05:30:21.585Z,82.67
2019-03-27T05:31:21.594Z,82.97
2019-03-27T05:32:21.595Z,82.87
2019-03-27T05:33:21.547Z,83.18
2019-03-27T05:34:21.542Z,82.77
2019-03-27T05:35:21.524Z,82.97
2019-03-27T05:36:21.527Z,84.52
2019-03-27T05:37:21.538Z,84.21
2019-03-27T05:38:21.497Z,84.21
2019-03-27T05:39:21.487Z,83.39
2019-03-27T05:40:21.480Z,83.39
2019-03-27T05:41:21.465Z,83.28
2019-03-27T05:42:21.471Z,83.28
2019-03-27T05:43:21.464Z,83.28
2019-03-27T05:44:21.428Z,83.59
2019-03-27T05:45:21.415Z,83.39
2019-03-27T05:46:21.401Z,83.07
2019-03-27T05:47:21.413Z,82.87
2019-03-27T05:48:21.393Z,83.18
2019-03-27T05:49:21.371Z,83.49
2019-03-27T05:50:21.383Z,83.70
2019-03-27T05:51:21.358Z,83.70
2019-03-27T05:52:21.360Z,83.59
2019-03-27T05:53:21.339Z,84.11
2019-03-27T05:54:21.311Z,84.21
2019-03-27T05:55:21.300Z,84.11
2019-03-27T05:56:21.294Z,84.11
2019-03-27T05:57:21.299Z,84.31
2019-03-27T05:58:21.276Z,84.11
2019-03-27T05:59:21.266Z,84.31
2019-03-27T06:00:21.245Z,84.21
2019-03-27T06:01:21.240Z,84.00
2019-03-27T06:02:21.300Z,84.11
2019-03-27T06:03:21.210Z,83.70
2019-03-27T06:04:21.209Z,83.70
2019-03-27T06:05:21.201Z,83.59
2019-03-27T06:06:21.190Z,83.39
2019-03-27T06:07:21.177Z,83.28
2019-03-27T06:08:21.205Z,83.07
2019-03-27T06:09:21.185Z,83.39
2019-03-27T06:10:21.143Z,83.70
2019-03-27T06:11:21.156Z,83.70
2019-03-27T06:12:21.108Z,83.39
2019-03-27T06:13:21.140Z,83.18
2019-03-27T06:14:21.096Z,83.18
2019-03-27T06:15:21.079Z,83.39
2019-03-27T06:16:21.112Z,83.39
2019-03-27T06:17:21.063Z,83.59
2019-03-27T06:18:21.071Z,82.87
2019-03-27T06:19:21.033Z,83.25
2019-03-27T06:20:21.040Z,83.49
2019-03-27T06:21:21.133Z,83.28
2019-03-27T06:22:20.998Z,83.45
2019-03-27T06:23:21.015Z,83.28
2019-03-27T06:24:21.004Z,82.77
2019-03-27T06:25:20.997Z,82.83
2019-03-27T06:26:20.978Z,82.42
2019-03-27T06:27:20.960Z,82.53
2019-03-27T06:28:20.960Z,82.56
2019-03-27T06:29:20.999Z,82.83
2019-03-27T06:30:20.908Z,83.04
2019-03-27T06:31:20.898Z,83.04
2019-03-27T06:32:20.912Z,82.42
2019-03-27T06:33:20.914Z,82.42
2019-03-27T06:34:20.873Z,81.70
2019-03-27T06:35:20.851Z,81.81
2019-03-27T06:36:20.867Z,81.60
2019-03-27T06:37:20.872Z,81.70
2019-03-27T06:38:20.865Z,81.74
2019-03-27T06:39:20.830Z,81.81
2019-03-27T06:40:20.810Z,81.70
2019-03-27T06:41:20.786Z,81.91
2019-03-27T06:42:20.771Z,81.70
2019-03-27T06:43:20.822Z,82.01
2019-03-27T06:44:20.780Z,81.70
2019-03-27T06:45:20.780Z,81.91
2019-03-27T06:46:20.741Z,81.60
2019-03-27T06:47:20.740Z,81.29
2019-03-27T06:48:26.265Z,81.49
2019-03-27T06:49:21.721Z,80.98
2019-03-27T06:50:20.707Z,81.49
2019-03-27T06:51:20.748Z,81.91
2019-03-27T06:52:20.669Z,81.91
2019-03-27T06:53:20.725Z,81.81
2019-03-27T06:54:20.638Z,81.91
2019-03-27T06:55:21.000Z,81.81
2019-03-27T06:56:20.644Z,82.21
2019-03-27T06:57:20.613Z,82.11
2019-03-27T06:58:20.701Z,81.70
2019-03-27T06:59:20.619Z,81.70
2019-03-27T07:00:20.643Z,81.19
2019-03-27T07:01:20.603Z,81.29
2019-03-27T07:02:20.550Z,81.09
2019-03-27T07:03:20.556Z,81.81
2019-03-27T07:04:20.526Z,82.53
2019-03-27T07:05:20.513Z,82.21
2019-03-27T07:06:20.509Z,82.93
2019-03-27T07:07:20.520Z,84.13
2019-03-27T07:08:20.514Z,84.13
2019-03-27T07:09:20.477Z,81.67
2019-03-27T07:10:20.463Z,80.60
2019-03-27T07:11:20.490Z,81.11
2019-03-27T07:12:21.614Z,81.01
2019-03-27T07:13:20.520Z,81.73
2019-03-27T07:14:20.441Z,81.73
2019-03-27T07:15:20.417Z,80.87
2019-03-27T07:16:20.397Z,78.92
2019-03-27T07:17:20.396Z,79.33
2019-03-27T07:18:20.422Z,78.92
2019-03-27T07:19:20.365Z,78.92
2019-03-27T07:20:20.353Z,78.40
2019-03-27T07:21:20.337Z,78.57
2019-03-27T07:22:20.322Z,77.85
2019-03-27T07:23:20.392Z,77.75
2019-03-27T07:24:20.304Z,77.00
2019-03-27T07:25:20.295Z,76.51
2019-03-27T07:26:20.297Z,76.62
2019-03-27T07:27:20.286Z,77.03
2019-03-27T07:28:20.291Z,77.85
2019-03-27T07:29:20.269Z,77.75
2019-03-27T07:30:20.244Z,77.03
2019-03-27T07:31:20.227Z,76.72
2019-03-27T07:32:20.232Z,76.00
2019-03-27T07:33:20.234Z,76.21
2019-03-27T07:34:20.197Z,76.10
2019-03-27T07:35:20.202Z,76.51
2019-03-27T07:36:20.166Z,76.31
2019-03-27T07:37:20.212Z,75.59
2019-03-27T07:38:20.184Z,75.70
2019-03-27T07:39:20.134Z,75.70
2019-03-27T07:40:20.381Z,76.10
2019-03-27T07:41:20.112Z,76.21
2019-03-27T07:42:20.099Z,76.10
2019-03-27T07:43:20.109Z,75.90
2019-03-27T07:44:20.107Z,75.80
2019-03-27T07:45:20.070Z,75.70
2019-03-27T07:46:20.074Z,75.59
2019-03-27T07:47:20.062Z,75.70
2019-03-27T07:48:20.046Z,75.90
2019-03-27T07:49:20.035Z,75.59
2019-03-27T07:50:20.023Z,75.29
2019-03-27T07:51:20.004Z,75.29
2019-03-27T07:52:27.262Z,75.38
2019-03-27T07:54:36.455Z,75.35
2019-03-27T07:55:36.433Z,74.32
2019-03-27T07:56:36.434Z,74.53
2019-03-27T07:57:36.396Z,74.32
2019-03-27T07:58:36.409Z,74.57
2019-03-27T07:59:36.375Z,74.32
2019-03-27T08:00:36.383Z,73.71
2019-03-27T08:01:36.357Z,74.02
2019-03-27T08:02:36.338Z,73.30
2019-03-27T08:03:36.343Z,73.91
2019-03-27T08:04:36.315Z,74.32
2019-03-27T08:05:36.355Z,73.81
2019-03-27T08:06:36.306Z,73.50
2019-03-27T08:07:36.291Z,73.71
2019-03-27T08:08:36.480Z,73.54
2019-03-27T08:09:36.283Z,73.33
2019-03-27T08:10:36.258Z,73.54
2019-03-27T08:11:36.312Z,73.54
2019-03-27T08:12:36.239Z,73.02
2019-03-27T08:13:36.226Z,73.02
2019-03-27T08:14:36.225Z,73.02
2019-03-27T08:15:36.192Z,73.13
2019-03-27T08:16:36.204Z,72.82
2019-03-27T08:17:36.168Z,72.78
2019-03-27T08:18:36.161Z,72.92
2019-03-27T08:19:36.243Z,72.89
2019-03-27T08:20:36.156Z,72.89
2019-03-27T08:21:36.125Z,72.51
2019-03-27T08:22:36.114Z,73.13
2019-03-27T08:23:36.102Z,72.68
2019-03-27T08:24:36.154Z,72.78
2019-03-27T08:25:36.098Z,72.92
2019-03-27T08:26:36.067Z,73.13
2019-03-27T08:27:36.055Z,73.10
2019-03-27T08:28:36.057Z,73.33
2019-03-27T08:29:36.068Z,73.71
2019-03-27T08:30:36.028Z,73.61
2019-03-27T08:31:36.032Z,73.71
2019-03-27T08:32:37.572Z,73.40
2019-03-27T08:33:36.006Z,73.40
2019-03-27T08:34:36.013Z,72.99
2019-03-27T08:35:35.987Z,72.89
2019-03-27T08:36:35.963Z,72.75
2019-03-27T08:37:35.954Z,72.58
2019-03-27T08:38:35.935Z,72.48
2019-03-27T08:39:35.940Z,72.68
2019-03-27T08:40:35.916Z,72.58
2019-03-27T08:41:35.920Z,72.82
2019-03-27T08:42:35.889Z,72.99
2019-03-27T08:43:35.888Z,72.99
2019-03-27T08:44:35.951Z,73.10
2019-03-27T08:46:45.602Z,73.10
2019-03-27T08:47:45.593Z,72.99
2019-03-27T08:48:45.564Z,72.89
2019-03-27T08:49:45.579Z,72.89
2019-03-27T08:50:45.552Z,72.99
2019-03-27T08:51:45.550Z,73.71
2019-03-27T08:52:45.531Z,73.50
2019-03-27T08:53:45.524Z,73.64
2019-03-27T08:54:45.524Z,74.22
2019-03-27T08:55:45.493Z,73.50
2019-03-27T08:56:45.476Z,73.50
2019-03-27T08:57:45.462Z,73.61
2019-03-27T08:58:45.460Z,73.81
2019-03-27T08:59:45.474Z,73.50
2019-03-27T09:00:45.464Z,73.19
2019-03-27T09:01:45.423Z,73.10
2019-03-27T09:02:45.399Z,73.16
2019-03-27T09:03:45.396Z,73.16
2019-03-27T09:04:45.431Z,72.75
2019-03-27T09:05:45.366Z,72.75
2019-03-27T09:06:45.363Z,72.75
2019-03-27T09:07:45.344Z,72.44
2019-03-27T09:08:45.340Z,72.44
2019-03-27T09:09:45.335Z,72.75
2019-03-27T09:10:45.344Z,72.85
2019-03-27T09:11:45.318Z,73.36
2019-03-27T09:12:45.291Z,73.71
2019-03-27T09:13:45.278Z,73.61
2019-03-27T09:14:45.270Z,73.61
2019-03-27T09:15:45.283Z,74.32
2019-03-27T09:16:45.257Z,73.81
2019-03-27T09:17:45.243Z,73.71
2019-03-27T09:18:45.230Z,73.71
2019-03-27T09:19:45.215Z,73.91
2019-03-27T09:20:45.251Z,73.71
2019-03-27T09:21:45.190Z,73.78
2019-03-27T09:22:45.176Z,73.57
2019-03-27T09:23:45.965Z,73.13
2019-03-27T09:24:45.167Z,73.33
2019-03-27T09:25:45.171Z,72.61
2019-03-27T09:26:45.130Z,72.92
2019-03-27T09:27:45.121Z,72.61
2019-03-27T09:28:45.103Z,72.31
2019-03-27T09:29:45.090Z,72.20
2019-03-27T09:30:45.199Z,72.00
2019-03-27T09:31:45.537Z,71.69
2019-03-27T09:32:45.082Z,71.90
2019-03-27T09:33:45.100Z,72.00
2019-03-27T09:34:45.073Z,72.20
2019-03-27T09:35:45.107Z,72.00
2019-03-27T09:36:45.020Z,72.20
2019-03-27T09:37:45.045Z,72.10
2019-03-27T09:38:45.002Z,72.20
2019-03-27T09:39:44.992Z,72.31
2019-03-27T09:40:45.044Z,72.72
2019-03-27T09:41:44.971Z,72.41
2019-03-27T09:42:44.961Z,72.51
2019-03-27T09:43:45.109Z,72.00
2019-03-27T09:44:44.929Z,72.00
2019-03-27T09:45:44.945Z,72.00
2019-03-27T09:46:44.915Z,72.07
2019-03-27T09:47:44.889Z,71.80
2019-03-27T09:48:44.898Z,71.90
2019-03-27T09:49:49.711Z,71.59
2019-03-27T09:50:45.913Z,71.66
2019-03-27T09:51:44.841Z,71.80
2019-03-27T09:52:44.829Z,71.69
2019-03-27T09:53:44.843Z,72.00
2019-03-27T09:54:45.818Z,71.80
2019-03-27T09:55:44.838Z,71.97
2019-03-27T09:56:44.786Z,72.17
2019-03-27T09:57:44.779Z,72.00
2019-03-27T09:58:44.784Z,71.59
2019-03-27T09:59:44.752Z,71.59
2019-03-27T10:00:44.759Z,71.48
2019-03-27T10:01:44.726Z,71.56
2019-03-27T10:02:44.713Z,71.76
2019-03-27T10:03:44.703Z,71.86
2019-03-27T10:04:44.707Z,71.66
2019-03-27T10:05:44.722Z,71.56
2019-03-27T10:06:44.665Z,71.90
2019-03-27T10:07:44.665Z,71.97
2019-03-27T10:08:44.657Z,72.07
2019-03-27T10:09:44.650Z,71.80
2019-03-27T10:10:44.635Z,72.10
2019-03-27T10:11:44.671Z,71.90
2019-03-27T10:12:44.600Z,72.00
2019-03-27T10:13:44.604Z,71.86
2019-03-27T10:14:47.422Z,72.10
2019-03-27T10:15:44.572Z,72.00
2019-03-27T10:16:44.587Z,72.17
2019-03-27T10:17:44.544Z,71.76
2019-03-27T10:18:47.341Z,71.97
2019-03-27T10:19:44.524Z,71.80
2019-03-27T10:20:44.519Z,71.97
2019-03-27T10:21:44.894Z,71.76
2019-03-27T10:22:44.506Z,71.56
2019-03-27T10:23:44.484Z,71.66
2019-03-27T10:24:44.469Z,71.76
2019-03-27T10:25:44.474Z,71.45
2019-03-27T10:26:44.473Z,71.66
2019-03-27T10:27:44.445Z,71.76
2019-03-27T10:28:44.430Z,71.76
2019-03-27T10:29:44.413Z,71.66
2019-03-27T10:30:44.391Z,71.56
2019-03-27T10:31:44.415Z,71.66
2019-03-27T10:32:44.382Z,71.56
2019-03-27T10:33:44.398Z,71.56
2019-03-27T10:34:44.350Z,71.73
2019-03-27T10:35:44.340Z,71.66
2019-03-27T10:36:44.352Z,71.73
2019-03-27T10:37:44.316Z,71.66
2019-03-27T10:38:44.315Z,71.56
2019-03-27T10:39:44.335Z,71.25
2019-03-27T10:40:44.293Z,71.15
2019-03-27T10:41:44.286Z,71.56
2019-03-27T10:42:44.260Z,71.66
2019-03-27T10:43:44.252Z,71.86
2019-03-27T10:44:44.254Z,71.76
2019-03-27T10:45:44.230Z,71.66
2019-03-27T10:46:44.245Z,71.80
2019-03-27T10:47:44.214Z,71.56
2019-03-27T10:48:52.603Z,71.45
2019-03-27T10:49:45.214Z,71.59
2019-03-27T10:50:44.174Z,71.45
2019-03-27T10:51:44.204Z,71.86
2019-03-27T10:52:44.147Z,71.76
2019-03-27T10:53:44.138Z,72.07
2019-03-27T10:54:44.126Z,72.20
2019-03-27T10:55:44.125Z,71.90
2019-03-27T10:56:44.146Z,71.76
2019-03-27T10:57:44.106Z,72.07
2019-03-27T10:58:44.141Z,71.76
2019-03-27T10:59:44.071Z,71.97
2019-03-27T11:00:44.059Z,72.07
2019-03-27T11:01:44.064Z,71.76
2019-03-27T11:02:44.065Z,71.56
2019-03-27T11:03:44.030Z,71.56
2019-03-27T11:04:44.006Z,71.56
2019-03-27T11:05:44.017Z,71.25
2019-03-27T11:06:43.997Z,71.25
2019-03-27T11:07:44.010Z,70.91
2019-03-27T11:08:43.980Z,70.81
2019-03-27T11:09:43.966Z,70.70
2019-03-27T11:10:43.948Z,70.60
2019-03-27T11:11:43.946Z,70.29
2019-03-27T11:12:43.954Z,70.29
2019-03-27T11:13:43.912Z,70.70
2019-03-27T11:14:43.897Z,70.40
2019-03-27T11:15:51.182Z,70.60
2019-03-27T11:16:51.068Z,70.50
2019-03-27T11:17:43.904Z,70.26
2019-03-27T11:18:43.860Z,69.95
2019-03-27T11:19:43.854Z,69.95
2019-03-27T11:20:43.847Z,69.95
2019-03-27T11:21:43.828Z,70.06
2019-03-27T11:22:43.835Z,69.95
2019-03-27T11:23:43.823Z,70.09
2019-03-27T11:24:43.783Z,70.06
2019-03-27T11:25:43.797Z,69.89
2019-03-27T11:26:43.766Z,70.47
2019-03-27T11:27:43.786Z,70.19
2019-03-27T11:28:43.753Z,70.06
2019-03-27T11:29:43.742Z,70.36
2019-03-27T11:30:43.720Z,70.29
2019-03-27T11:31:43.706Z,70.29
2019-03-27T11:32:43.720Z,70.67
2019-03-27T11:33:43.708Z,70.36
2019-03-27T11:34:43.702Z,69.89
2019-03-27T11:35:43.677Z,69.75
2019-03-27T11:36:43.652Z,70.16
2019-03-27T11:37:43.711Z,70.06
2019-03-27T11:38:43.642Z,69.34
2019-03-27T11:39:43.657Z,69.65
2019-03-27T11:40:43.624Z,69.54
2019-03-27T11:41:43.597Z,70.06
2019-03-27T11:42:43.638Z,69.34
2019-03-27T11:43:54.304Z,70.16
2019-03-27T11:44:44.578Z,69.34
2019-03-27T11:45:43.569Z,69.31
2019-03-27T11:46:43.567Z,69.31
2019-03-27T11:47:43.571Z,68.90
2019-03-27T11:48:43.524Z,68.59
2019-03-27T11:49:43.511Z,69.10
2019-03-27T11:50:45.151Z,68.90
2019-03-27T11:51:43.591Z,68.49
2019-03-27T11:52:43.473Z,68.28
2019-03-27T11:53:43.509Z,69.41
2019-03-27T11:54:43.456Z,68.69
2019-03-27T11:55:43.437Z,68.73
2019-03-27T11:56:43.437Z,68.83
2019-03-27T11:57:43.427Z,68.79
2019-03-27T11:58:43.459Z,68.79
2019-03-27T11:59:53.167Z,68.73
2019-03-27T12:00:54.536Z,69.03
2019-03-27T12:01:44.403Z,69.13
2019-03-27T12:02:43.372Z,68.79
2019-03-27T12:03:43.394Z,68.79
2019-03-27T12:04:43.341Z,69.00
2019-03-27T12:05:45.742Z,68.97
2019-03-27T12:06:43.322Z,67.33
2019-03-27T12:07:43.306Z,67.50
2019-03-27T12:08:43.327Z,67.43
2019-03-27T12:09:43.291Z,67.43
2019-03-27T12:10:43.288Z,67.13
2019-03-27T12:11:43.262Z,67.40
2019-03-27T12:12:43.253Z,66.92
2019-03-27T12:13:43.255Z,66.78
2019-03-27T12:14:43.243Z,67.43
2019-03-27T12:15:43.226Z,67.54
2019-03-27T12:16:43.210Z,67.23
2019-03-27T12:17:43.194Z,67.43
2019-03-27T12:18:43.213Z,66.92
2019-03-27T12:19:43.175Z,66.89
2019-03-27T12:20:43.149Z,67.13
2019-03-27T12:21:43.154Z,67.02
2019-03-27T12:22:43.129Z,66.92
2019-03-27T12:23:43.144Z,67.54
2019-03-27T12:24:43.131Z,67.54
2019-03-27T12:25:43.102Z,67.13
2019-03-27T12:26:43.101Z,67.13
2019-03-27T12:27:43.077Z,67.23
2019-03-27T12:28:43.090Z,67.23
2019-03-27T12:29:43.067Z,67.54
2019-03-27T12:30:43.044Z,67.43
2019-03-27T12:31:43.030Z,67.54
2019-03-27T12:32:43.018Z,67.43
2019-03-27T12:33:43.036Z,67.54
2019-03-27T12:34:43.005Z,67.33
2019-03-27T12:35:43.009Z,67.13
2019-03-27T12:36:42.971Z,66.92
2019-03-27T12:37:42.961Z,67.13
2019-03-27T12:38:42.968Z,67.77
2019-03-27T12:39:42.940Z,68.05
2019-03-27T12:40:42.934Z,67.94
2019-03-27T12:41:42.931Z,68.46
2019-03-27T12:42:42.903Z,67.84
2019-03-27T12:43:42.914Z,68.46
2019-03-27T12:44:42.896Z,68.28
2019-03-27T12:45:42.868Z,68.55
2019-03-27T12:46:42.871Z,68.87
2019-03-27T12:47:42.864Z,67.64
2019-03-27T12:48:42.865Z,67.64
2019-03-27T12:49:42.822Z,67.64
2019-03-27T12:50:44.303Z,67.54
2019-03-27T12:51:42.800Z,67.54
2019-03-27T12:52:42.809Z,67.84
2019-03-27T12:53:42.857Z,67.77
2019-03-27T12:54:42.767Z,67.33